ADL weather

Adelaide International Airport
Adelaide, South Australia, Australia

Public forecast

Using degrees Celsius for public forecast. Weather courtesy of forecast.io.

METAR (pilot weather report)

Retrieved 2018/09/23 21:30 UTC (30 minutes ago):

YPAD 232130Z 00000KT CAVOK 09/03 Q1032 NOSIG

TAF (pilot weather forecast)

Retrieved 2018/09/23 18:00 UTC (4 hours ago):

TAF YPAD 231639Z 2318/2424 11010KT CAVOK FM240200 23012KT CAVOK FM240700 13012KT CAVOK FM241800 10007KT CAVOK